createdAt,value
2022-10-22T00:00:54.276Z,3.20
2022-10-22T00:03:21.845Z,3.27
2022-10-22T00:05:49.036Z,3.37
2022-10-22T00:08:16.509Z,3.37
2022-10-22T00:10:43.957Z,3.30
2022-10-22T00:13:12.634Z,3.40
2022-10-22T00:15:40.109Z,3.53
2022-10-22T00:18:07.076Z,3.70
2022-10-22T00:20:34.458Z,3.63
2022-10-22T00:23:01.878Z,3.60
2022-10-22T00:25:29.390Z,3.53
2022-10-22T00:27:56.816Z,3.60
2022-10-22T00:30:23.793Z,3.47
2022-10-22T00:32:50.789Z,3.37
2022-10-22T00:35:17.869Z,3.80
2022-10-22T00:37:45.289Z,3.37
2022-10-22T00:40:13.014Z,3.80
2022-10-22T00:42:40.179Z,3.67
2022-10-22T00:45:10.206Z,3.60
2022-10-22T00:48:06.046Z,4.10
2022-10-22T00:50:34.523Z,3.37
2022-10-22T00:53:04.370Z,3.70
2022-10-22T00:55:33.350Z,3.60
2022-10-22T00:58:01.470Z,3.80
2022-10-22T01:00:29.272Z,3.67
2022-10-22T01:02:57.618Z,3.83
2022-10-22T01:05:31.450Z,3.57
2022-10-22T01:07:58.959Z,3.53
2022-10-22T01:11:23.594Z,3.57
2022-10-22T01:14:02.854Z,3.43
2022-10-22T01:17:01.697Z,3.70
2022-10-22T01:20:03.014Z,3.50
2022-10-22T01:22:46.247Z,3.20
2022-10-22T01:25:37.516Z,3.40
2022-10-22T01:28:10.958Z,3.57
2022-10-22T01:30:40.359Z,3.30
2022-10-22T01:33:11.971Z,3.57
2022-10-22T01:35:43.178Z,3.50
2022-10-22T01:38:17.664Z,3.73
2022-10-22T01:40:46.271Z,3.50
2022-10-22T01:43:13.990Z,3.50
2022-10-22T01:45:50.395Z,4.13
2022-10-22T01:49:27.566Z,3.33
2022-10-22T01:52:27.346Z,3.40
2022-10-22T01:55:23.155Z,3.40
2022-10-22T01:58:22.763Z,3.60
2022-10-22T02:01:41.670Z,3.63
2022-10-22T02:04:40.131Z,3.70
2022-10-22T02:07:12.801Z,3.10
2022-10-22T02:09:42.107Z,3.53
2022-10-22T02:12:10.644Z,3.40
2022-10-22T02:14:43.292Z,3.53
2022-10-22T02:17:17.216Z,3.10
2022-10-22T02:19:52.527Z,3.50
2022-10-22T02:22:20.884Z,3.40
2022-10-22T02:24:50.187Z,3.27
2022-10-22T02:27:28.265Z,3.20
2022-10-22T02:33:09.866Z,3.10
2022-10-22T02:35:40.297Z,3.13
2022-10-22T02:38:08.238Z,3.10
2022-10-22T02:40:35.956Z,3.33
2022-10-22T02:43:05.947Z,3.07
2022-10-22T02:45:34.581Z,3.00
2022-10-22T02:48:02.106Z,3.07
2022-10-22T02:50:29.129Z,3.03
2022-10-22T02:52:56.647Z,2.97
2022-10-22T02:55:24.148Z,3.03
2022-10-22T02:57:51.605Z,3.20
2022-10-22T03:00:21.064Z,3.10
2022-10-22T03:02:48.469Z,3.20
2022-10-22T03:05:15.889Z,3.13
2022-10-22T03:07:43.528Z,3.10
2022-10-22T03:10:10.865Z,3.50
2022-10-22T03:12:38.273Z,3.37
2022-10-22T03:15:06.073Z,3.43
2022-10-22T03:17:33.094Z,3.20
2022-10-22T03:20:00.514Z,3.07
2022-10-22T03:22:32.850Z,2.83
2022-10-22T03:25:07.873Z,3.20
2022-10-22T03:27:37.956Z,2.90
2022-10-22T03:30:06.778Z,3.07
2022-10-22T03:32:33.821Z,2.97
2022-10-22T03:35:01.439Z,3.10
2022-10-22T03:37:30.118Z,2.93
2022-10-22T03:39:57.699Z,2.97
2022-10-22T03:42:25.174Z,3.00
2022-10-22T03:44:52.826Z,3.00
2022-10-22T03:47:19.816Z,2.83
2022-10-22T03:49:47.255Z,2.87
2022-10-22T03:52:15.807Z,2.80
2022-10-22T03:54:43.507Z,3.03
2022-10-22T03:57:11.365Z,2.90
2022-10-22T03:59:45.108Z,2.93
2022-10-22T04:02:14.455Z,3.20
2022-10-22T04:04:41.834Z,3.00
2022-10-22T04:07:09.676Z,2.87
2022-10-22T04:09:37.235Z,2.90
2022-10-22T04:12:09.378Z,2.80
2022-10-22T04:14:36.431Z,2.83
2022-10-22T04:17:03.924Z,2.70
2022-10-22T04:19:30.891Z,2.83
2022-10-22T04:22:01.430Z,2.80
2022-10-22T04:24:30.426Z,2.73
2022-10-22T04:26:58.172Z,2.90
2022-10-22T04:29:25.990Z,2.90
2022-10-22T04:31:53.143Z,2.70
2022-10-22T04:34:20.596Z,2.90
2022-10-22T04:36:48.004Z,2.93
2022-10-22T04:39:15.458Z,2.70
2022-10-22T04:41:42.851Z,2.77
2022-10-22T04:44:13.638Z,2.57
2022-10-22T04:46:43.149Z,2.70
2022-10-22T04:49:10.616Z,2.70
2022-10-22T04:51:38.128Z,2.70
2022-10-22T04:54:05.755Z,2.73
2022-10-22T04:56:33.767Z,2.83
2022-10-22T04:59:05.204Z,2.70
2022-10-22T05:01:39.929Z,2.60
2022-10-22T05:04:15.396Z,2.80
2022-10-22T05:06:44.057Z,2.77
2022-10-22T05:09:20.358Z,2.67
2022-10-22T05:11:50.619Z,2.60
2022-10-22T05:14:22.186Z,2.57
2022-10-22T05:16:50.275Z,2.60
2022-10-22T05:19:32.013Z,2.77
2022-10-22T05:22:02.458Z,2.70
2022-10-22T05:24:34.284Z,2.60
2022-10-22T05:27:02.075Z,2.60
2022-10-22T05:29:29.452Z,2.57
2022-10-22T05:31:57.081Z,2.60
2022-10-22T05:34:24.528Z,2.70
2022-10-22T05:36:52.028Z,2.70
2022-10-22T05:39:18.976Z,2.70
2022-10-22T05:41:46.424Z,2.70
2022-10-22T05:44:14.337Z,2.70
2022-10-22T05:46:43.193Z,2.67
2022-10-22T05:49:15.559Z,2.57
2022-10-22T05:51:43.119Z,2.60
2022-10-22T05:54:20.530Z,2.60
2022-10-22T05:56:48.073Z,2.63
2022-10-22T05:59:15.461Z,2.60
2022-10-22T06:01:43.024Z,2.70
2022-10-22T06:04:12.765Z,2.67
2022-10-22T06:06:45.452Z,2.73
2022-10-22T06:09:35.488Z,2.63
2022-10-22T06:12:03.369Z,2.50
2022-10-22T06:14:32.545Z,2.60
2022-10-22T06:17:00.420Z,2.80
2022-10-22T06:19:28.042Z,2.80
2022-10-22T06:21:55.508Z,2.83
2022-10-22T06:24:22.873Z,2.77
2022-10-22T06:26:51.762Z,2.67
2022-10-22T06:29:19.234Z,2.63
2022-10-22T06:31:46.674Z,2.70
2022-10-22T06:34:14.990Z,2.77
2022-10-22T06:36:44.145Z,2.77
2022-10-22T06:39:17.256Z,2.60
2022-10-22T06:41:45.030Z,2.60
2022-10-22T06:44:16.707Z,2.83
2022-10-22T06:46:44.783Z,2.60
2022-10-22T06:49:17.019Z,2.63
2022-10-22T06:51:44.258Z,2.80
2022-10-22T06:54:11.869Z,2.60
2022-10-22T06:56:38.920Z,2.70
2022-10-22T06:59:06.315Z,2.60
2022-10-22T07:01:35.663Z,2.60
2022-10-22T07:04:04.401Z,2.53
2022-10-22T07:06:32.306Z,2.60
2022-10-22T07:09:00.995Z,2.60
2022-10-22T07:11:38.575Z,2.80
2022-10-22T07:14:06.138Z,2.50
2022-10-22T07:16:33.109Z,2.60
2022-10-22T07:19:05.354Z,2.60
2022-10-22T07:21:32.975Z,2.90
2022-10-22T07:24:00.582Z,2.80
2022-10-22T07:26:30.791Z,2.70
2022-10-22T07:29:01.738Z,2.70
2022-10-22T07:31:29.248Z,2.90
2022-10-22T07:33:57.691Z,2.73
2022-10-22T07:36:25.143Z,2.80
2022-10-22T07:38:59.147Z,2.87
2022-10-22T07:41:28.347Z,2.93
2022-10-22T07:43:56.939Z,2.97
2022-10-22T07:46:25.336Z,3.07
2022-10-22T07:48:53.126Z,3.23
2022-10-22T07:51:20.900Z,3.17
2022-10-22T07:53:48.330Z,3.07
2022-10-22T07:56:15.847Z,3.40
2022-10-22T07:58:43.260Z,3.40
2022-10-22T08:03:50.051Z,2.80
2022-10-22T08:06:17.697Z,2.77
2022-10-22T08:08:46.305Z,3.07
2022-10-22T08:11:14.138Z,3.00
2022-10-22T08:13:45.360Z,3.20
2022-10-22T08:16:14.413Z,3.10
2022-10-22T08:18:42.248Z,3.17
2022-10-22T08:21:10.622Z,3.33
2022-10-22T08:23:38.615Z,3.73
2022-10-22T08:26:06.296Z,3.07
2022-10-22T08:28:36.892Z,3.10
2022-10-22T08:31:08.714Z,3.17
2022-10-22T08:33:38.759Z,3.03
2022-10-22T08:36:07.015Z,3.00
2022-10-22T08:38:35.167Z,2.87
2022-10-22T08:41:19.450Z,3.00
2022-10-22T08:44:18.309Z,3.10
2022-10-22T08:47:50.340Z,2.67
2022-10-22T08:50:27.216Z,2.90
2022-10-22T08:53:00.204Z,2.77
2022-10-22T08:55:28.406Z,2.70
2022-10-22T08:58:18.807Z,2.60
2022-10-22T09:01:03.523Z,2.77
2022-10-22T09:03:57.304Z,2.60
2022-10-22T09:06:35.553Z,2.33
2022-10-22T09:09:15.782Z,2.40
2022-10-22T09:11:52.529Z,2.53
2022-10-22T09:14:23.536Z,2.83
2022-10-22T09:17:33.922Z,2.97
2022-10-22T09:20:16.849Z,3.30
2022-10-22T09:23:21.297Z,3.53
2022-10-22T09:25:51.620Z,4.57
2022-10-22T09:28:19.538Z,4.40
2022-10-22T09:30:47.092Z,4.07
2022-10-22T09:33:26.957Z,3.07
2022-10-22T09:36:07.374Z,2.30
2022-10-22T09:38:46.875Z,2.13
2022-10-22T09:41:15.139Z,2.60
2022-10-22T09:43:43.918Z,2.37
2022-10-22T09:46:23.605Z,2.00
2022-10-22T09:49:15.790Z,1.70
2022-10-22T09:51:57.479Z,1.70
2022-10-22T09:54:33.957Z,1.67
2022-10-22T09:57:21.914Z,1.77
2022-10-22T09:59:53.899Z,1.67
2022-10-22T10:02:44.440Z,1.77
2022-10-22T10:05:32.692Z,1.80
2022-10-22T10:08:13.385Z,1.80
2022-10-22T10:10:46.515Z,1.87
2022-10-22T10:13:48.004Z,1.80
2022-10-22T10:16:41.821Z,1.80
2022-10-22T10:19:31.114Z,1.83
2022-10-22T10:22:05.348Z,1.83
2022-10-22T10:24:58.627Z,1.90
2022-10-22T10:27:28.457Z,2.33
2022-10-22T10:30:17.221Z,2.20
2022-10-22T10:33:05.934Z,2.30
2022-10-22T10:35:55.378Z,2.10
2022-10-22T10:38:43.038Z,2.00
2022-10-22T10:41:52.116Z,2.00
2022-10-22T10:44:40.994Z,1.90
2022-10-22T10:47:53.830Z,2.03
2022-10-22T10:50:35.019Z,2.00
2022-10-22T10:54:11.594Z,2.17
2022-10-22T10:56:43.359Z,1.87
2022-10-22T10:59:30.463Z,1.87
2022-10-22T11:02:22.547Z,1.80
2022-10-22T11:05:39.155Z,1.70
2022-10-22T11:08:22.175Z,1.80
2022-10-22T11:11:06.400Z,1.90
2022-10-22T11:13:41.183Z,1.80
2022-10-22T11:16:46.575Z,2.10
2022-10-22T11:19:46.178Z,1.80
2022-10-22T11:23:18.719Z,1.83
2022-10-22T11:25:50.115Z,2.10
2022-10-22T11:28:42.393Z,2.00
2022-10-22T11:31:19.643Z,2.30
2022-10-22T11:34:04.967Z,2.50
2022-10-22T11:36:44.216Z,2.90
2022-10-22T11:39:36.985Z,2.53
2022-10-22T11:42:32.248Z,1.90
2022-10-22T11:45:24.772Z,1.80
2022-10-22T11:48:17.059Z,1.90
2022-10-22T11:51:00.133Z,1.90
2022-10-22T11:53:32.454Z,1.80
2022-10-22T11:56:10.594Z,2.30
2022-10-22T11:58:39.270Z,1.87
2022-10-22T12:01:12.562Z,1.97
2022-10-22T12:03:49.000Z,2.30
2022-10-22T12:06:20.853Z,2.20
2022-10-22T12:08:57.492Z,2.50
2022-10-22T12:11:40.146Z,2.50
2022-10-22T12:14:26.594Z,2.40
2022-10-22T12:17:03.249Z,3.10
2022-10-22T12:19:42.337Z,3.70
2022-10-22T12:22:27.418Z,3.00
2022-10-22T12:25:00.681Z,2.60
2022-10-22T12:27:38.847Z,2.43
2022-10-22T12:30:29.526Z,2.70
2022-10-22T12:33:03.765Z,2.30
2022-10-22T12:35:35.601Z,2.40
2022-10-22T12:38:14.441Z,2.20
2022-10-22T12:40:45.940Z,2.20
2022-10-22T12:43:28.806Z,2.10
2022-10-22T12:45:58.717Z,2.00
2022-10-22T12:48:30.883Z,2.20
2022-10-22T12:51:03.974Z,2.20
2022-10-22T12:53:42.105Z,2.30
2022-10-22T12:56:28.627Z,2.37
2022-10-22T12:59:03.797Z,2.30
2022-10-22T13:01:39.855Z,2.20
2022-10-22T13:04:20.974Z,2.10
2022-10-22T13:06:51.920Z,2.03
2022-10-22T13:09:26.820Z,1.93
2022-10-22T13:12:04.467Z,2.10
2022-10-22T13:14:35.625Z,2.50
2022-10-22T13:17:17.876Z,1.90
2022-10-22T13:19:54.097Z,1.90
2022-10-22T13:22:35.128Z,2.07
2022-10-22T13:25:14.660Z,2.43
2022-10-22T13:27:54.679Z,2.70
2022-10-22T13:30:35.590Z,2.43
2022-10-22T13:33:06.196Z,2.50
2022-10-22T13:35:37.438Z,2.30
2022-10-22T13:38:15.925Z,2.30
2022-10-22T13:40:43.438Z,2.40
2022-10-22T13:43:10.879Z,2.37
2022-10-22T13:45:37.943Z,2.50
2022-10-22T13:48:05.658Z,2.63
2022-10-22T13:50:33.094Z,2.80
2022-10-22T13:53:00.494Z,2.80
2022-10-22T13:55:30.535Z,2.87
2022-10-22T13:58:11.443Z,3.03
2022-10-22T14:00:43.283Z,2.77
2022-10-22T14:03:17.499Z,3.13
2022-10-22T14:05:47.278Z,2.83
2022-10-22T14:08:20.863Z,3.00
2022-10-22T14:10:48.447Z,3.03
2022-10-22T14:13:19.659Z,3.10
2022-10-22T14:15:50.616Z,3.07
2022-10-22T14:18:26.224Z,2.90
2022-10-22T14:21:07.304Z,2.60
2022-10-22T14:23:36.750Z,3.53
2022-10-22T14:26:07.129Z,2.70
2022-10-22T14:28:41.348Z,2.37
2022-10-22T14:31:19.515Z,2.30
2022-10-22T14:33:47.002Z,2.00
2022-10-22T14:36:15.766Z,2.10
2022-10-22T14:38:45.568Z,2.00
2022-10-22T14:41:22.375Z,2.00
2022-10-22T14:43:51.812Z,1.90
2022-10-22T14:46:19.748Z,1.70
2022-10-22T14:48:47.561Z,1.70
2022-10-22T14:51:18.384Z,1.60
2022-10-22T14:53:46.251Z,1.53
2022-10-22T14:56:16.900Z,1.67
2022-10-22T14:58:45.482Z,1.60
2022-10-22T15:01:13.202Z,1.70
2022-10-22T15:03:40.623Z,1.70
2022-10-22T15:06:08.327Z,1.80
2022-10-22T15:08:36.011Z,1.80
2022-10-22T15:11:11.190Z,2.00
2022-10-22T15:13:40.404Z,2.00
2022-10-22T15:16:10.158Z,2.30
2022-10-22T15:18:38.208Z,2.30
2022-10-22T15:21:14.658Z,2.30
2022-10-22T15:23:42.633Z,2.30
2022-10-22T15:26:11.681Z,2.30
2022-10-22T15:28:40.538Z,2.20
2022-10-22T15:31:12.558Z,2.30
2022-10-22T15:33:42.816Z,2.33
2022-10-22T15:36:15.824Z,2.30
2022-10-22T15:38:42.824Z,2.40
2022-10-22T15:41:13.269Z,2.43
2022-10-22T15:43:40.668Z,2.83
2022-10-22T15:46:19.552Z,3.00
2022-10-22T15:48:47.273Z,2.83
2022-10-22T15:51:19.890Z,2.80
2022-10-22T15:53:58.642Z,2.60
2022-10-22T15:56:28.525Z,2.60
2022-10-22T15:59:03.869Z,2.47
2022-10-22T16:01:33.983Z,2.40
2022-10-22T16:04:02.706Z,2.40
2022-10-22T16:06:32.103Z,2.30
2022-10-22T16:09:01.929Z,2.40
2022-10-22T16:11:31.370Z,2.40
2022-10-22T16:14:00.870Z,2.30
2022-10-22T16:16:32.261Z,2.33
2022-10-22T16:19:01.433Z,2.47
2022-10-22T16:21:29.845Z,3.27
2022-10-22T16:23:58.257Z,2.47
2022-10-22T16:26:27.562Z,2.50
2022-10-22T16:28:54.995Z,2.40
2022-10-22T16:31:22.419Z,2.50
2022-10-22T16:33:50.408Z,2.60
2022-10-22T16:36:20.454Z,2.63
2022-10-22T16:38:48.968Z,2.60
2022-10-22T16:41:22.766Z,2.70
2022-10-22T16:43:52.860Z,2.50
2022-10-22T16:46:22.680Z,2.50
2022-10-22T16:48:52.522Z,2.50
2022-10-22T16:51:26.692Z,2.50
2022-10-22T16:53:55.870Z,2.50
2022-10-22T16:56:23.487Z,2.60
2022-10-22T16:58:53.867Z,2.50
2022-10-22T17:01:29.115Z,2.60
2022-10-22T17:03:59.470Z,2.50
2022-10-22T17:06:27.323Z,2.60
2022-10-22T17:08:54.933Z,2.57
2022-10-22T17:11:24.441Z,2.50
2022-10-22T17:13:54.370Z,2.70
2022-10-22T17:16:25.480Z,2.60
2022-10-22T17:18:55.143Z,2.60
2022-10-22T17:21:23.175Z,2.60
2022-10-22T17:23:56.418Z,2.60
2022-10-22T17:26:26.443Z,2.70
2022-10-22T17:28:54.651Z,2.60
2022-10-22T17:31:30.107Z,2.63
2022-10-22T17:33:59.698Z,2.60
2022-10-22T17:36:30.480Z,2.60
2022-10-22T17:39:05.016Z,2.60
2022-10-22T17:41:35.856Z,2.73
2022-10-22T17:44:06.043Z,2.67
2022-10-22T17:46:33.884Z,2.70
2022-10-22T17:49:06.806Z,2.77
2022-10-22T17:51:34.327Z,2.73
2022-10-22T17:54:03.516Z,2.80
2022-10-22T17:56:33.588Z,2.90
2022-10-22T17:59:01.539Z,2.87
2022-10-22T18:01:32.621Z,3.10
2022-10-22T18:04:04.060Z,2.87
2022-10-22T18:06:32.342Z,2.87
2022-10-22T18:08:59.775Z,3.10
2022-10-22T18:11:28.708Z,3.10
2022-10-22T18:13:57.632Z,3.13
2022-10-22T18:16:26.457Z,2.97
2022-10-22T18:18:56.094Z,2.97
2022-10-22T18:21:26.774Z,2.93
2022-10-22T18:23:54.737Z,3.00
2022-10-22T18:26:25.910Z,3.03
2022-10-22T18:28:56.300Z,3.10
2022-10-22T18:31:27.939Z,2.97
2022-10-22T18:33:57.046Z,3.00
2022-10-22T18:36:26.849Z,3.00
2022-10-22T18:38:58.404Z,3.00
2022-10-22T18:41:27.360Z,3.00
2022-10-22T18:43:58.696Z,2.90
2022-10-22T18:46:27.863Z,3.00
2022-10-22T18:48:59.245Z,3.00
2022-10-22T18:51:32.702Z,3.13
2022-10-22T18:54:22.196Z,2.87
2022-10-22T18:56:48.237Z,2.90
2022-10-22T18:59:26.413Z,3.00
2022-10-22T19:01:57.433Z,2.80
2022-10-22T19:04:27.029Z,2.83
2022-10-22T19:06:54.182Z,2.90
2022-10-22T19:09:26.257Z,2.93
2022-10-22T19:11:53.732Z,2.83
2022-10-22T19:14:21.998Z,2.90
2022-10-22T19:16:50.039Z,2.90
2022-10-22T19:19:22.265Z,2.80
2022-10-22T19:21:50.306Z,2.97
2022-10-22T19:24:19.546Z,2.90
2022-10-22T19:26:48.458Z,3.00
2022-10-22T19:29:19.425Z,3.30
2022-10-22T19:31:47.532Z,3.03
2022-10-22T19:34:14.553Z,3.17
2022-10-22T19:36:41.962Z,3.00
2022-10-22T19:39:09.370Z,3.10
2022-10-22T19:41:37.022Z,3.23
2022-10-22T19:44:04.566Z,3.10
2022-10-22T19:46:32.581Z,3.20
2022-10-22T19:49:02.243Z,3.20
2022-10-22T19:51:33.219Z,3.27
2022-10-22T19:54:07.507Z,3.23
2022-10-22T19:56:37.551Z,3.13
2022-10-22T19:59:05.927Z,3.20
2022-10-22T20:01:33.425Z,3.30
2022-10-22T20:04:01.388Z,3.07
2022-10-22T20:06:29.251Z,3.17
2022-10-22T20:08:56.859Z,3.13
2022-10-22T20:11:27.728Z,3.13
2022-10-22T20:13:56.654Z,3.23
2022-10-22T20:16:28.270Z,3.10
2022-10-22T20:18:58.867Z,2.97
2022-10-22T20:21:26.302Z,3.00
2022-10-22T20:23:56.222Z,2.97
2022-10-22T20:26:24.451Z,3.10
2022-10-22T20:28:52.214Z,3.17
2022-10-22T20:31:22.123Z,2.97
2022-10-22T20:33:50.759Z,3.00
2022-10-22T20:36:23.667Z,3.00
2022-10-22T20:38:52.019Z,3.10
2022-10-22T20:41:23.579Z,3.13
2022-10-22T20:43:52.036Z,3.00
2022-10-22T20:46:37.739Z,3.20
2022-10-22T20:49:15.187Z,3.00
2022-10-22T20:51:42.993Z,3.07
2022-10-22T20:54:11.084Z,3.03
2022-10-22T20:56:40.804Z,2.97
2022-10-22T20:59:10.808Z,3.07
2022-10-22T21:01:49.096Z,3.07
2022-10-22T21:04:18.472Z,3.07
2022-10-22T21:06:45.964Z,3.40
2022-10-22T21:09:14.975Z,3.20
2022-10-22T21:11:43.746Z,3.10
2022-10-22T21:14:14.370Z,3.07
2022-10-22T21:16:44.320Z,3.17
2022-10-22T21:19:11.730Z,3.03
2022-10-22T21:21:39.156Z,3.10
2022-10-22T21:24:06.779Z,3.10
2022-10-22T21:26:38.264Z,3.20
2022-10-22T21:29:06.036Z,3.23
2022-10-22T21:31:33.593Z,3.17
2022-10-22T21:34:01.044Z,3.30
2022-10-22T21:36:28.497Z,3.30
2022-10-22T21:38:56.064Z,3.40
2022-10-22T21:41:24.537Z,3.40
2022-10-22T21:43:52.073Z,3.20
2022-10-22T21:46:25.930Z,3.07
2022-10-22T21:48:56.665Z,3.10
2022-10-22T21:51:25.420Z,3.40
2022-10-22T21:53:53.561Z,3.30
2022-10-22T21:56:40.072Z,3.27
2022-10-22T21:59:07.918Z,3.27
2022-10-22T22:01:36.055Z,3.13
2022-10-22T22:04:04.077Z,2.97
2022-10-22T22:06:33.493Z,3.27
2022-10-22T22:09:03.010Z,3.30
2022-10-22T22:11:31.701Z,3.40
2022-10-22T22:13:59.039Z,3.10
2022-10-22T22:16:31.126Z,3.23
2022-10-22T22:19:06.105Z,3.10
2022-10-22T22:21:36.085Z,3.20
2022-10-22T22:24:04.086Z,3.30
2022-10-22T22:26:31.730Z,2.97
2022-10-22T22:29:00.985Z,3.10
2022-10-22T22:31:31.709Z,3.00
2022-10-22T22:34:06.265Z,3.20
2022-10-22T22:36:37.451Z,3.00
2022-10-22T22:39:08.198Z,3.10
2022-10-22T22:41:35.670Z,3.23
2022-10-22T22:44:03.301Z,3.07
2022-10-22T22:46:30.910Z,2.90
2022-10-22T22:48:58.362Z,3.20
2022-10-22T22:51:26.791Z,3.00
2022-10-22T22:53:54.323Z,3.20
2022-10-22T22:56:26.196Z,3.30
2022-10-22T22:58:53.794Z,2.90
2022-10-22T23:01:27.288Z,3.00
2022-10-22T23:04:11.622Z,2.93
2022-10-22T23:06:39.418Z,3.00
2022-10-22T23:09:09.921Z,2.93
2022-10-22T23:11:38.970Z,3.00
2022-10-22T23:14:08.315Z,3.03
2022-10-22T23:16:40.410Z,3.10
2022-10-22T23:19:08.035Z,3.17
2022-10-22T23:21:39.670Z,3.07
2022-10-22T23:24:14.291Z,3.30
2022-10-22T23:26:48.912Z,2.90
2022-10-22T23:29:26.931Z,3.20
2022-10-22T23:31:55.558Z,2.77
2022-10-22T23:34:25.237Z,3.00
2022-10-22T23:36:53.778Z,3.00
2022-10-22T23:39:24.575Z,2.97
2022-10-22T23:41:53.170Z,3.00
2022-10-22T23:44:22.115Z,3.00
2022-10-22T23:46:50.463Z,3.13
2022-10-22T23:49:18.284Z,3.30
2022-10-22T23:51:45.388Z,3.13
2022-10-22T23:54:15.751Z,3.20
2022-10-22T23:56:43.363Z,3.30
2022-10-22T23:59:11.032Z,3.17
